Tyaskin, Maryland
Current Conditions -  °F | °C
As of 11:58 AM on Saturday 25 Oct 2014 (Local Time) from KCGE Reporting Station
Clear Clear  
Wind Chill: 18°   Ceiling: Unl
Heat Index: 18°   Visibility: 10mi
Dew Point:   Wind: 7mph
Humidity: 42%   Direction: 320°NW
Pressure: 29.92"   Gusts: NA
Location:  38.32°N, 75.87°W
Report Text: KCGE 251558Z AUTO 32006KT 10SM CLR 18/05 A2992 RMK AO1
Loading
Personal Weather Stations






























Interactive Weather Map
Tropical Storm Tracking
New forecast layout! Learn more

10-Day Weather Forecast

Advertisements
Track Severe Weather on mobile